Latest Weather Observations for Thargomindah

IDQ60801

Issued at 9:52 am EST Sunday 17 February 2019 (issued every 10 minutes, with the page automatically refreshed every 10 minutes)

About weather observations | Map of weather stations | Latest weather observations for QLD | Other Formats
Station Details ID: 045025 Name: THARGOMINDAH AIRPORT Lat: -27.99 Lon: 143.81 Height: 130.89 m
Data from the previous 72 hours. | See also: Recent months at Thargomindah
Date/Time
EST
Temp
°C
App
Temp
°C
Dew
Point
°C
Rel
Hum
%
Delta-T
°C
Wind Press
QNH
hPa
Press
MSL
hPa
Rain since
9am
mm
Dir  Spd
km/h
Gust
km/h
Spd
kts
Gust
kts
17/09:30am 34.2 32.2 15.6 32 11.7 N 20 30 11 16 1010.8 1009.8 0.0
17/09:00am 33.6 31.6 15.6 34 11.3 N 20 30 11 16 1010.7 1009.7 0.0
17/08:30am 32.1 30.7 15.6 37 10.3 NNE 17 22 9 12 1010.6 1009.6 0.0
17/08:00am 31.3 30.5 16.1 40 9.5 NE 15 20 8 11 1010.6 1009.6 0.0
17/07:30am 30.4 29.2 16.0 41 9.0 NE 17 22 9 12 1010.4 1009.4 0.0
17/07:00am 29.5 28.3 16.0 44 8.4 NE 17 24 9 13 1010.3 1009.3 0.0
17/06:30am 29.1 28.3 16.0 45 8.1 NE 15 20 8 11 1010.2 1009.2 0.0
17/06:00am 28.9 28.4 15.8 45 8.1 ENE 13 17 7 9 1009.8 1008.9 0.0
17/05:30am 29.0 28.7 15.5 44 8.3 NE 11 13 6 7 1009.5 1008.6 0.0
17/05:00am 29.2 29.0 15.7 44 8.4 NE 11 13 6 7 1009.2 1008.3 0.0
17/04:30am 29.5 29.3 15.6 43 8.6 ENE 11 17 6 9 1008.9 1008.0 0.0
17/04:00am 29.8 29.1 15.5 42 8.9 E 13 17 7 9 1008.8 1007.9 0.0
17/03:30am 30.1 29.8 15.4 41 9.1 ENE 11 15 6 8 1008.7 1007.8 0.0
17/03:00am 30.3 29.9 15.2 40 9.3 ENE 11 15 6 8 1008.6 1007.7 0.0
17/02:30am 30.8 30.2 15.6 39 9.5 NE 13 19 7 10 1008.7 1007.8 0.0
17/02:00am 31.0 30.2 15.0 38 9.9 NE 13 20 7 11 1008.8 1007.9 0.0
17/01:30am 31.5 29.5 15.0 36 10.2 NE 19 24 10 13 1009.0 1008.1 0.0
17/01:00am 31.9 29.5 14.5 34 10.7 NE 20 30 11 16 1009.3 1008.4 0.0
17/12:30am 32.4 29.1 14.1 33 11.2 NNE 24 35 13 19 1009.6 1008.7 0.0
17/12:00am 33.0 29.2 13.6 31 11.8 NNE 26 33 14 18 1010.2 1009.2 0.0
 
Date/Time
EST
Temp
°C
App
Temp
°C
Dew
Point
°C
Rel
Hum
%
Delta-T
°C
Wind Press
QNH
hPa
Press
MSL
hPa
Rain since
9am
mm
Dir  Spd
km/h
Gust
km/h
Spd
kts
Gust
kts
16/11:30pm 34.0 30.8 11.8 26 13.2 NE 20 35 11 19 1010.3 1009.3 0.0
16/11:00pm 34.1 31.7 11.3 25 13.5 ENE 15 20 8 11 1009.8 1008.9 0.0
16/10:30pm 34.6 32.1 11.1 24 13.9 ENE 15 19 8 10 1010.1 1009.1 0.0
16/10:00pm 35.1 33.5 11.5 24 14.1 NE 11 15 6 8 1009.9 1009.0 0.0
16/09:30pm 35.6 32.8 11.3 23 14.4 ENE 17 24 9 13 1009.9 1009.0 0.0
16/09:00pm 35.7 32.9 10.0 21 15.0 ENE 15 20 8 11 1009.7 1008.8 0.0
16/08:30pm 36.1 32.0 8.8 19 15.7 ESE 20 26 11 14 1009.2 1008.3 0.0
16/08:00pm 36.7 32.6 8.5 18 16.2 SE 20 28 11 15 1008.8 1007.9 0.0
16/07:30pm 37.2 32.9 7.2 16 16.9 SE 19 26 10 14 1008.5 1007.6 0.0
16/07:00pm 38.1 35.3 7.0 15 17.6 SE 11 17 6 9 1008.1 1007.2 0.0
16/06:30pm 39.3 38.2 6.9 14 18.3 ESE 2 7 1 4 1007.8 1006.9 0.0
16/06:00pm 39.3 38.0 5.8 13 18.7 W 2 9 1 5 1007.5 1006.6 0.0
16/05:30pm 40.4 37.2 6.7 13 19.1 WSW 13 20 7 11 1007.6 1006.7 0.0
16/05:00pm 40.6 38.2 6.8 13 19.2 WSW 9 13 5 7 1007.6 1006.7 0.0
16/04:30pm 40.3 37.8 6.6 13 19.1 SW 9 17 5 9 1007.8 1006.9 0.0
16/04:00pm 39.9 37.3 6.3 13 18.9 SW 9 17 5 9 1008.0 1007.1 0.0
16/03:30pm 39.8 36.6 5.1 12 19.2 SW 11 22 6 12 1008.2 1007.3 0.0
16/03:00pm 39.7 37.7 6.1 13 18.8 WNW 6 11 3 6 1008.7 1007.8 0.0
16/02:30pm 39.7 36.1 8.2 15 18.2 NNW 17 32 9 17 1009.2 1008.3 0.0
16/02:00pm 39.4 36.5 8.0 15 18.1 N 13 26 7 14 1009.7 1008.8 0.0
16/01:30pm 38.7 36.7 10.1 18 16.9 NW 11 20 6 11 1010.4 1009.4 0.0
16/01:00pm 38.7 36.8 11.7 20 16.3 ENE 13 26 7 14 1010.9 1009.9 0.0
16/12:30pm 37.8 35.1 11.7 21 15.7 NNE 17 32 9 17 1011.4 1010.4 0.0
16/12:00pm 38.0 35.0 12.6 22 15.5 N 20 30 11 16 1011.9 1010.9 0.0
16/11:30am 37.3 34.3 12.7 23 15.0 NNE 20 32 11 17 1012.3 1011.3 0.0
16/11:00am 37.3 34.7 13.3 23 14.8 NNE 19 30 10 16 1012.7 1011.7 0.0
16/10:30am 35.9 33.0 12.8 25 14.0 NNE 20 32 11 17 1013.1 1012.1 0.0
16/10:00am 35.2 32.7 12.2 25 13.8 NNE 17 28 9 15 1013.2 1012.3 0.0
16/09:30am 34.3 31.1 12.0 25 13.3 NE 20 28 11 15 1013.1 1012.1 0.0
16/09:00am 33.6 30.3 11.5 26 13.1 ENE 20 30 11 16 1013.1 1012.1 0.0
16/08:30am 33.0 29.0 10.4 25 13.1 ENE 22 28 12 15 1013.1 1012.1 0.0
16/08:00am 32.0 28.0 8.9 24 13.0 E 20 30 11 16 1012.9 1011.9 0.0
16/07:30am 30.7 27.3 9.0 26 12.2 E 17 22 9 12 1012.8 1011.8 0.0
16/07:00am 29.7 26.2 8.7 27 11.7 E 17 22 9 12 1012.5 1011.5 0.0
16/06:30am 28.7 26.0 8.9 29 11.0 E 13 17 7 9 1012.2 1011.2 0.0
16/06:00am 28.9 26.1 8.6 28 11.2 E 13 17 7 9 1012.0 1011.0 0.0
16/05:30am 29.2 26.3 8.3 27 11.5 ESE 13 19 7 10 1011.6 1010.6 0.0
16/05:00am 29.5 26.2 8.0 26 11.8 ESE 15 20 8 11 1011.4 1010.4 0.0
16/04:30am 29.5 26.4 7.4 25 12.0 ESE 13 17 7 9 1011.2 1010.2 0.0
16/04:00am 29.4 26.0 6.1 23 12.4 ESE 13 17 7 9 1011.0 1010.0 0.0
16/03:30am 29.7 25.9 5.7 22 12.7 ESE 15 19 8 10 1010.9 1009.9 0.0
16/03:00am 29.5 25.8 4.2 20 13.0 ESE 13 17 7 9 1011.1 1010.1 0.0
16/02:30am 29.3 25.4 3.3 19 13.2 SE 13 15 7 8 1011.3 1010.3 0.0
16/02:00am 29.4 25.1 1.0 16 13.8 SSE 13 15 7 8 1011.3 1010.3 0.0
16/01:30am 29.1 24.6 -0.1 15 13.9 SSE 13 15 7 8 1011.5 1010.5 0.0
16/01:00am 29.1 24.5 -1.1 14 14.1 SSE 13 15 7 8 1011.7 1010.7 0.0
16/12:30am 28.6 24.3 -1.5 14 13.9 S 11 13 6 7 1011.9 1010.9 0.0
16/12:00am 29.1 25.1 -2.1 13 14.4 SSE 9 11 5 6 1012.2 1011.2 0.0
 
Date/Time
EST
Temp
°C
App
Temp
°C
Dew
Point
°C
Rel
Hum
%
Delta-T
°C
Wind Press
QNH
hPa
Press
MSL
hPa
Rain since
9am
mm
Dir  Spd
km/h
Gust
km/h
Spd
kts
Gust
kts
15/11:30pm 30.0 25.7 -1.4 13 14.7 S 11 13 6 7 1012.4 1011.4 0.0
15/11:00pm 30.1 25.8 -1.3 13 14.8 S 11 13 6 7 1012.4 1011.4 0.0
15/10:30pm 30.8 26.1 -1.9 12 15.3 S 13 13 7 7 1012.5 1011.5 0.0
15/10:00pm 31.5 26.9 -1.3 12 15.6 S 13 15 7 8 1012.6 1011.6 0.0
15/09:30pm 32.4 27.9 -0.6 12 15.9 SSW 13 13 7 7 1012.6 1011.6 0.0
15/09:00pm 33.1 28.6 -0.1 12 16.3 SSW 13 15 7 8 1012.5 1011.5 0.0
15/08:30pm 33.9 29.3 -0.7 11 16.9 SSW 13 17 7 9 1012.2 1011.2 0.0
15/08:00pm 34.4 29.9 -0.3 11 17.1 SSW 13 13 7 7 1011.7 1010.7 0.0
15/07:30pm 35.3 31.1 -0.9 10 17.8 SSW 11 15 6 8 1011.5 1010.5 0.0
15/07:00pm 36.4 32.3 -0.1 10 18.3 SSE 11 15 6 8 1011.2 1010.2 0.0
15/06:30pm 36.9 32.5 0.3 10 18.5 SSE 13 17 7 9 1011.1 1010.1 0.0
15/06:00pm 37.0 33.0 0.4 10 18.5 SSW 11 20 6 11 1011.1 1010.1 0.0
15/05:30pm 37.4 33.4 0.7 10 18.7 S 11 15 6 8 1011.3 1010.3 0.0
15/05:00pm 38.0 34.5 1.1 10 19.0 WSW 9 13 5 7 1011.4 1010.4 0.0
15/04:30pm 37.6 33.3 0.8 10 18.8 WSW 13 24 7 13 1011.4 1010.4 0.0
15/04:00pm 38.0 33.7 1.1 10 19.0 SSW 13 20 7 11 1011.4 1010.4 0.0
15/03:30pm 36.7 32.9 1.5 11 18.1 SSW 11 17 6 9 1011.7 1010.7 0.0
15/03:00pm 36.2 32.3 1.1 11 17.9 NE 11 17 6 9 1012.0 1011.0 0.0
15/02:30pm 36.6 32.7 1.4 11 18.0 SSW 11 22 6 12 1012.5 1011.5 0.0
15/02:00pm 36.6 32.0 1.4 11 18.1 SSW 15 20 8 11 1013.1 1012.1 0.0
15/01:30pm 35.1 31.6 1.5 12 17.1 NNW 9 17 5 9 1013.3 1012.4 0.0
15/01:00pm 35.8 32.0 2.0 12 17.4 SSW 11 17 6 9 1013.8 1012.9 0.0
15/12:30pm 34.7 31.4 2.3 13 16.7 SSE 9 17 5 9 1014.2 1013.3 0.0
15/12:00pm 34.2 30.2 2.9 14 16.2 NNE 13 24 7 13 1014.8 1013.9 0.0
15/11:30am 33.5 29.6 3.3 15 15.7 E 13 20 7 11 1015.3 1014.4 0.0
15/11:00am 32.8 29.7 3.7 16 15.1 ESE 9 15 5 8 1015.8 1014.9 0.0
15/10:30am 31.4 27.9 3.4 17 14.4 SE 11 17 6 9 1016.0 1015.1 0.0
15/10:00am 30.8 26.7 4.5 19 13.7 ESE 15 20 8 11 1016.2 1015.3 0.0
15/09:30am 29.8 25.3 4.4 20 13.1 E 17 24 9 13 1016.2 1015.3 0.0
15/09:00am 28.7 23.1 3.5 20 12.7 ESE 22 30 12 16 1016.1 1015.2 0.0
15/08:30am 27.6 22.0 3.3 21 12.2 SE 22 35 12 19 1015.7 1014.8 0.0
15/08:00am 26.7 21.0 0.4 18 12.4 SE 20 32 11 17 1015.5 1014.6 0.0
15/07:30am 25.4 20.0 -1.4 17 12.1 SE 17 20 9 11 1015.4 1014.5 0.0
15/07:00am 24.0 19.3 -1.8 18 11.4 SSE 13 20 7 11 1015.3 1014.4 0.0
15/06:30am 23.1 18.3 -2.5 18 11.1 SSE 13 17 7 9 1014.9 1014.0 0.0
15/06:00am 23.0 18.2 -2.6 18 11.1 SSE 13 17 7 9 1014.6 1013.7 0.0
15/05:30am 23.0 18.1 -3.3 17 11.2 SSE 13 15 7 8 1014.3 1013.4 0.0
15/05:00am 23.0 18.0 -4.1 16 11.4 SSE 13 15 7 8 1013.9 1013.0 0.0
15/04:30am 23.0 17.6 -4.1 16 11.4 SSE 15 19 8 10 1013.7 1012.8 0.0
15/04:00am 23.2 17.8 -4.8 15 11.7 SSE 15 19 8 10 1013.8 1012.9 0.0
15/03:30am 23.1 17.7 -4.9 15 11.6 S 15 19 8 10 1013.8 1012.9 0.0
15/03:00am 23.3 17.9 -4.8 15 11.7 S 15 17 8 9 1013.9 1013.0 0.0
15/02:30am 23.3 18.2 -4.8 15 11.7 S 13 15 7 8 1014.1 1013.2 0.0
15/02:00am 23.2 17.7 -5.7 14 11.8 S 15 17 8 9 1014.2 1013.3 0.0
15/01:30am 23.4 17.9 -5.6 14 11.9 S 15 17 8 9 1014.4 1013.5 0.0
15/01:00am 23.0 18.2 -5.9 14 11.7 S 11 15 6 8 1014.7 1013.8 0.0
15/12:30am 23.3 18.1 -5.7 14 11.9 S 13 15 7 8 1015.0 1014.1 0.0
15/12:00am 23.4 18.6 -6.5 13 12.1 S 11 13 6 7 1015.3 1014.4 0.0
 
Date/Time
EST
Temp
°C
App
Temp
°C
Dew
Point
°C
Rel
Hum
%
Delta-T
°C
Wind Press
QNH
hPa
Press
MSL
hPa
Rain since
9am
mm
Dir  Spd
km/h
Gust
km/h
Spd
kts
Gust
kts
14/11:30pm 23.4 18.6 -6.5 13 12.1 SSW 11 13 6 7 1015.4 1014.5 0.0
14/11:00pm 24.0 19.1 -7.1 12 12.5 SSW 11 11 6 6 1015.4 1014.5 0.0
14/10:30pm 24.2 19.7 -7.0 12 12.6 S 9 11 5 6 1015.4 1014.5 0.0
14/10:00pm 25.5 21.1 -6.0 12 13.1 S 9 9 5 5 1015.3 1014.4 0.0
14/09:30pm 26.1 21.6 -6.6 11 13.5 S 9 11 5 6 1015.3 1014.4 0.0
14/09:00pm 27.0 22.6 -5.9 11 13.9 SSE 9 11 5 6 1015.1 1014.2 0.0
14/08:30pm 27.8 22.9 -6.6 10 14.4 SSE 11 13 6 7 1014.8 1013.9 0.0
14/08:00pm 28.6 23.4 -6.0 10 14.8 SSE 13 17 7 9 1014.5 1013.6 0.0
14/07:30pm 29.0 23.3 -7.0 9 15.2 SSE 15 20 8 11 1014.0 1013.1 0.0
14/07:00pm 29.7 23.3 -6.5 9 15.5 SE 19 26 10 14 1013.5 1012.6 0.0
14/06:30pm 30.2 23.9 -6.1 9 15.7 SE 19 24 10 13 1013.3 1012.4 0.0
14/06:00pm 31.0 25.5 -5.5 9 16.1 SSE 15 28 8 15 1013.0 1012.0 0.0
14/05:30pm 31.2 24.8 -5.4 9 16.2 S 20 28 11 15 1012.9 1011.9 0.0
14/05:00pm 31.8 26.0 -4.9 9 16.4 SSE 17 26 9 14 1012.9 1011.9 0.0
14/04:30pm 30.6 24.4 -4.4 10 15.6 SSE 19 28 10 15 1013.1 1012.1 0.0
14/04:00pm 30.3 24.1 -4.7 10 15.5 S 19 30 10 16 1013.1 1012.1 0.0
14/03:30pm 30.5 24.1 -4.5 10 15.6 SSE 20 32 11 17 1013.4 1012.5 0.0
14/03:00pm 30.1 24.4 -3.6 11 15.2 SE 17 28 9 15 1013.7 1012.8 0.0
14/02:30pm 28.8 22.6 -4.6 11 14.7 SSE 19 30 10 16 1014.1 1013.2 0.0
14/02:00pm 29.9 23.8 -3.7 11 15.1 SE 19 26 10 14 1014.5 1013.6 0.0
14/01:30pm 28.6 22.2 -4.7 11 14.6 S 20 35 11 19 1014.8 1013.9 0.0
14/01:00pm 27.9 21.2 -4.1 12 14.1 SE 22 33 12 18 1015.1 1014.2 0.0
14/12:30pm 27.2 21.5 -3.6 13 13.6 E 17 26 9 14 1015.4 1014.5 0.0
14/12:00pm 26.5 20.2 -4.1 13 13.3 SSE 20 37 11 20 1015.8 1014.9 0.0
14/11:30am 25.6 19.9 -3.8 14 12.7 SE 17 28 9 15 1016.2 1015.3 0.0
14/11:00am 25.0 18.3 -4.3 14 12.5 SE 22 32 12 17 1016.4 1015.5 0.0
14/10:30am 25.0 18.4 -3.4 15 12.3 ESE 22 30 12 16 1016.6 1015.7 0.0
14/10:00am 24.4 17.4 -3.9 15 12.1 E 24 33 13 18 1016.6 1015.7 0.0

Other Formats:

Comma delimited format used in spreadsheet applications
http://www.bom.gov.au/fwo/IDQ60801/IDQ60801.95492.axf

JavaScript Object Notation format (JSON) in row-major order
http://www.bom.gov.au/fwo/IDQ60801/IDQ60801.95492.json